createdAt,value
2019-05-28T00:00:49.357Z,10.69
2019-05-28T00:03:22.967Z,10.71
2019-05-28T00:06:00.200Z,10.68
2019-05-28T00:08:34.416Z,10.62
2019-05-28T00:11:08.279Z,10.59
2019-05-28T00:16:33.700Z,10.69
2019-05-28T00:19:07.484Z,10.69
2019-05-28T00:21:41.115Z,10.76
2019-05-28T00:24:14.767Z,10.78
2019-05-28T00:26:48.909Z,10.77
2019-05-28T00:29:22.865Z,10.85
2019-05-28T00:31:56.654Z,10.92
2019-05-28T00:34:30.566Z,10.95
2019-05-28T00:37:08.757Z,10.93
2019-05-28T00:39:42.875Z,10.88
2019-05-28T00:42:16.368Z,10.80
2019-05-28T00:44:51.775Z,10.83
2019-05-28T00:47:25.580Z,10.73
2019-05-28T00:50:00.158Z,10.68
2019-05-28T00:52:33.372Z,10.69
2019-05-28T00:55:09.407Z,10.65
2019-05-28T00:57:45.951Z,10.61
2019-05-28T01:00:36.465Z,10.60
2019-05-28T01:03:00.710Z,10.55
2019-05-28T01:05:39.361Z,10.53
2019-05-28T01:08:13.345Z,10.46
2019-05-28T01:10:46.353Z,10.47
2019-05-28T01:13:19.964Z,10.45
2019-05-28T01:15:53.750Z,10.57
2019-05-28T01:18:27.742Z,10.62
2019-05-28T01:21:01.560Z,10.61
2019-05-28T01:23:36.687Z,10.66
2019-05-28T01:26:14.709Z,10.62
2019-05-28T01:28:48.407Z,10.65
2019-05-28T01:31:22.611Z,10.67
2019-05-28T01:33:56.595Z,10.63
2019-05-28T01:36:30.537Z,10.61
2019-05-28T01:39:06.740Z,10.61
2019-05-28T01:41:40.713Z,10.59
2019-05-28T01:44:15.252Z,10.64
2019-05-28T01:46:49.169Z,10.58
2019-05-28T01:49:22.685Z,10.59
2019-05-28T01:51:57.002Z,10.55
2019-05-28T01:54:30.349Z,10.50
2019-05-28T01:57:10.886Z,10.49
2019-05-28T01:59:44.781Z,10.44
2019-05-28T02:02:19.257Z,10.36
2019-05-28T02:04:52.886Z,10.40
2019-05-28T02:08:31.248Z,10.44
2019-05-28T02:11:09.131Z,10.42
2019-05-28T02:13:43.057Z,10.34
2019-05-28T02:16:18.066Z,10.28
2019-05-28T02:18:52.411Z,10.21
2019-05-28T02:21:27.521Z,10.26
2019-05-28T02:24:12.679Z,10.28
2019-05-28T02:26:46.468Z,10.25
2019-05-28T02:29:22.400Z,10.16
2019-05-28T02:32:01.298Z,10.13
2019-05-28T02:34:34.721Z,10.05
2019-05-28T02:37:10.782Z,10.04
2019-05-28T02:39:47.821Z,10.05
2019-05-28T02:42:21.507Z,10.01
2019-05-28T02:45:23.957Z,9.85
2019-05-28T02:48:09.792Z,9.79
2019-05-28T02:50:59.077Z,9.71
2019-05-28T02:53:50.711Z,9.71
2019-05-28T02:56:27.076Z,9.62
2019-05-28T02:59:01.361Z,9.57
2019-05-28T03:01:43.966Z,9.48
2019-05-28T03:04:15.046Z,9.41
2019-05-28T03:06:50.307Z,9.36
2019-05-28T03:09:26.551Z,9.31
2019-05-28T03:12:00.084Z,9.24
2019-05-28T03:14:45.166Z,9.30
2019-05-28T03:17:20.538Z,9.23
2019-05-28T03:19:54.516Z,9.26
2019-05-28T03:23:26.712Z,9.39
2019-05-28T03:26:05.889Z,9.36
2019-05-28T03:28:50.320Z,9.51
2019-05-28T03:31:26.600Z,9.59
2019-05-28T03:34:13.068Z,9.68
2019-05-28T03:36:49.220Z,9.64
2019-05-28T03:39:35.289Z,9.76
2019-05-28T03:42:09.624Z,9.74
2019-05-28T03:44:54.858Z,9.80
2019-05-28T03:47:39.652Z,9.87
2019-05-28T03:50:30.780Z,9.98
2019-05-28T03:53:18.045Z,10.01
2019-05-28T03:55:52.720Z,10.02
2019-05-28T03:58:37.998Z,10.18
2019-05-28T04:01:22.482Z,10.21
2019-05-28T04:03:58.900Z,10.26
2019-05-28T04:06:33.274Z,10.31
2019-05-28T04:09:21.215Z,10.38
2019-05-28T04:12:29.329Z,10.52
2019-05-28T04:15:03.433Z,10.47
2019-05-28T04:17:35.962Z,10.54
2019-05-28T04:20:11.407Z,10.58
2019-05-28T04:22:46.830Z,10.63
2019-05-28T04:25:24.113Z,10.68
2019-05-28T04:28:15.694Z,10.74
2019-05-28T04:31:00.704Z,10.83
2019-05-28T04:33:35.149Z,10.87
2019-05-28T04:36:09.087Z,10.89
2019-05-28T04:38:43.301Z,10.93
2019-05-28T04:41:28.724Z,11.04
2019-05-28T04:44:20.575Z,11.07
2019-05-28T04:47:11.841Z,11.11
2019-05-28T04:50:07.936Z,11.24
2019-05-28T04:52:42.148Z,11.19
2019-05-28T04:55:18.379Z,11.20
2019-05-28T04:57:53.147Z,11.22
2019-05-28T05:00:26.801Z,11.27
2019-05-28T05:03:01.233Z,11.40
2019-05-28T05:05:34.861Z,11.48
2019-05-28T05:08:09.008Z,11.50
2019-05-28T05:10:42.741Z,11.62
2019-05-28T05:13:16.785Z,11.64
2019-05-28T05:15:51.110Z,11.59
2019-05-28T05:18:25.613Z,11.65
2019-05-28T05:20:59.970Z,11.65
2019-05-28T05:23:52.619Z,11.79
2019-05-28T05:26:40.112Z,11.82
2019-05-28T05:29:14.465Z,11.92
2019-05-28T05:32:03.442Z,11.98
2019-05-28T05:34:37.766Z,12.08
2019-05-28T05:37:37.238Z,12.08
2019-05-28T05:40:24.038Z,12.24
2019-05-28T05:43:00.083Z,12.28
2019-05-28T05:45:37.048Z,12.26
2019-05-28T05:48:24.751Z,12.00
2019-05-28T05:51:27.478Z,11.97
2019-05-28T05:54:17.254Z,12.06
2019-05-28T06:00:25.119Z,12.22
2019-05-28T06:03:53.785Z,12.24
2019-05-28T06:06:47.063Z,12.34
2019-05-28T06:13:47.058Z,12.37
2019-05-28T06:16:58.411Z,12.35
2019-05-28T06:20:01.691Z,12.28
2019-05-28T06:22:37.582Z,12.34
2019-05-28T06:25:15.958Z,12.41
2019-05-28T06:27:50.790Z,12.32
2019-05-28T06:30:27.704Z,12.18
2019-05-28T06:33:23.467Z,12.27
2019-05-28T06:35:57.070Z,12.32
2019-05-28T06:38:35.737Z,12.44
2019-05-28T06:41:10.116Z,12.45
2019-05-28T06:44:11.690Z,12.61
2019-05-28T06:46:51.358Z,12.70
2019-05-28T06:49:25.383Z,12.84
2019-05-28T06:52:02.581Z,12.93
2019-05-28T06:54:51.235Z,13.15
2019-05-28T06:58:00.072Z,13.05
2019-05-28T07:00:40.786Z,13.05
2019-05-28T07:03:37.130Z,13.02
2019-05-28T07:06:12.785Z,13.05
2019-05-28T07:08:50.399Z,13.11
2019-05-28T07:11:26.871Z,13.09
2019-05-28T07:14:39.267Z,13.17
2019-05-28T07:28:07.260Z,13.95
2019-05-28T07:30:27.857Z,14.12
2019-05-28T07:33:19.259Z,14.20
2019-05-28T07:35:55.481Z,14.15
2019-05-28T07:38:29.315Z,13.95
2019-05-28T07:41:21.237Z,13.68
2019-05-28T07:43:55.284Z,13.60
2019-05-28T07:46:29.747Z,13.52
2019-05-28T07:49:27.418Z,13.63
2019-05-28T07:52:09.308Z,13.75
2019-05-28T07:55:00.462Z,13.96
2019-05-28T07:57:51.901Z,14.11
2019-05-28T08:00:37.656Z,14.29
2019-05-28T08:03:22.645Z,14.48
2019-05-28T08:05:58.044Z,14.60
2019-05-28T08:08:57.589Z,14.68
2019-05-28T08:11:37.356Z,14.83
2019-05-28T08:14:14.487Z,14.81
2019-05-28T08:16:52.608Z,14.89
2019-05-28T08:19:36.149Z,14.81
2019-05-28T08:22:13.519Z,14.66
2019-05-28T08:24:45.803Z,14.69
2019-05-28T08:27:20.567Z,14.72
2019-05-28T08:29:54.225Z,14.60
2019-05-28T08:32:40.018Z,14.50
2019-05-28T08:35:17.177Z,14.45
2019-05-28T08:37:55.412Z,14.46
2019-05-28T08:40:29.759Z,14.58
2019-05-28T08:43:06.929Z,14.63
2019-05-28T08:45:49.170Z,14.70
2019-05-28T08:48:23.198Z,14.74
2019-05-28T08:51:15.252Z,14.86
2019-05-28T08:54:09.140Z,14.88
2019-05-28T08:56:44.803Z,14.80
2019-05-28T08:59:19.288Z,14.83
2019-05-28T09:02:04.650Z,14.98
2019-05-28T09:04:44.873Z,15.06
2019-05-28T09:07:18.913Z,15.01
2019-05-28T09:09:53.318Z,15.02
2019-05-28T09:12:27.514Z,15.44
2019-05-28T09:15:31.338Z,15.80
2019-05-28T09:18:06.535Z,15.71
2019-05-28T09:20:40.689Z,15.75
2019-05-28T09:23:14.707Z,15.38
2019-05-28T09:26:00.175Z,15.10
2019-05-28T09:28:34.170Z,15.03
2019-05-28T09:31:19.933Z,14.90
2019-05-28T09:33:54.423Z,14.99
2019-05-28T09:36:36.955Z,15.16
2019-05-28T09:39:10.622Z,15.85
2019-05-28T09:41:43.954Z,15.85
2019-05-28T09:44:17.569Z,16.20
2019-05-28T09:46:51.410Z,16.45
2019-05-28T09:49:25.002Z,16.48
2019-05-28T09:52:10.085Z,16.55
2019-05-28T09:54:44.426Z,16.48
2019-05-28T09:57:20.907Z,16.41
2019-05-28T09:59:55.761Z,16.43
2019-05-28T10:02:30.212Z,15.75
2019-05-28T10:05:04.195Z,15.75
2019-05-28T10:07:46.584Z,15.76
2019-05-28T10:10:21.163Z,15.94
2019-05-28T10:12:54.682Z,16.18
2019-05-28T10:15:28.208Z,16.18
2019-05-28T10:25:36.409Z,16.23
2019-05-28T10:28:10.605Z,16.23
2019-05-28T10:30:44.925Z,16.25
2019-05-28T10:33:18.889Z,16.49
2019-05-28T10:35:52.747Z,16.51
2019-05-28T10:38:26.718Z,16.67
2019-05-28T10:41:09.841Z,17.29
2019-05-28T10:43:43.897Z,17.29
2019-05-28T10:46:17.737Z,17.47
2019-05-28T10:48:51.915Z,17.48
2019-05-28T10:51:25.759Z,17.52
2019-05-28T10:53:58.135Z,17.12
2019-05-28T10:56:32.151Z,17.30
2019-05-28T10:59:07.040Z,17.77
2019-05-28T11:01:40.214Z,17.90
2019-05-28T11:04:13.628Z,17.44
2019-05-28T11:06:56.227Z,17.20
2019-05-28T11:09:30.337Z,16.82
2019-05-28T11:12:04.285Z,16.46
2019-05-28T11:14:38.270Z,16.52
2019-05-28T11:17:27.865Z,16.56
2019-05-28T11:20:02.231Z,16.54
2019-05-28T11:22:34.252Z,16.46
2019-05-28T11:25:09.440Z,17.45
2019-05-28T11:27:44.276Z,17.45
2019-05-28T11:30:29.432Z,17.98
2019-05-28T11:33:03.530Z,18.50
2019-05-28T11:35:37.737Z,18.62
2019-05-28T11:38:20.968Z,18.84
2019-05-28T11:40:55.201Z,19.00
2019-05-28T11:43:29.136Z,19.08
2019-05-28T11:46:03.200Z,19.38
2019-05-28T11:48:47.292Z,19.30
2019-05-28T11:51:30.425Z,19.46
2019-05-28T11:54:03.947Z,19.28
2019-05-28T11:56:49.218Z,19.50
2019-05-28T11:59:32.391Z,18.88
2019-05-28T12:02:06.575Z,18.09
2019-05-28T12:04:41.542Z,17.59
2019-05-28T12:07:25.469Z,17.51
2019-05-28T12:10:00.483Z,17.59
2019-05-28T12:12:37.683Z,17.24
2019-05-28T12:15:12.591Z,16.89
2019-05-28T12:17:54.818Z,16.26
2019-05-28T12:20:29.650Z,16.26
2019-05-28T12:23:11.261Z,16.35
2019-05-28T12:25:38.493Z,16.49
2019-05-28T12:28:12.396Z,16.73
2019-05-28T12:30:46.616Z,16.95
2019-05-28T12:33:21.051Z,17.67
2019-05-28T12:35:55.075Z,18.23
2019-05-28T12:38:40.143Z,18.42
2019-05-28T12:41:13.950Z,17.92
2019-05-28T12:43:48.156Z,17.46
2019-05-28T12:46:33.152Z,16.84
2019-05-28T12:49:07.223Z,16.73
2019-05-28T12:51:52.823Z,16.97
2019-05-28T12:54:37.596Z,16.94
2019-05-28T12:57:22.943Z,16.69
2019-05-28T13:00:09.018Z,16.74
2019-05-28T13:02:43.344Z,17.10
2019-05-28T13:05:30.083Z,17.83
2019-05-28T13:08:09.133Z,17.74
2019-05-28T13:10:39.406Z,17.68
2019-05-28T13:13:13.981Z,17.23
2019-05-28T13:15:48.210Z,16.63
2019-05-28T13:18:21.703Z,16.63
2019-05-28T13:20:55.367Z,16.76
2019-05-28T13:23:30.025Z,17.07
2019-05-28T13:26:03.220Z,17.37
2019-05-28T13:28:37.082Z,17.65
2019-05-28T13:31:10.847Z,17.56
2019-05-28T13:33:45.224Z,17.43
2019-05-28T13:36:31.302Z,16.91
2019-05-28T13:39:31.542Z,16.91
2019-05-28T13:42:04.961Z,17.07
2019-05-28T13:44:37.202Z,16.97
2019-05-28T13:47:31.929Z,16.97
2019-05-28T13:49:47.756Z,16.89
2019-05-28T13:52:20.870Z,17.24
2019-05-28T13:54:54.466Z,17.60
2019-05-28T13:57:27.582Z,17.59
2019-05-28T13:59:59.718Z,17.76
2019-05-28T14:02:32.324Z,17.82
2019-05-28T14:05:16.901Z,18.33
2019-05-28T14:07:50.641Z,18.27
2019-05-28T14:10:24.579Z,18.51
2019-05-28T14:12:59.231Z,18.24
2019-05-28T14:15:47.646Z,17.63
2019-05-28T14:18:39.521Z,17.26
2019-05-28T14:21:14.258Z,17.56
2019-05-28T14:23:56.672Z,17.41
2019-05-28T14:26:30.809Z,17.14
2019-05-28T14:29:15.828Z,16.97
2019-05-28T14:31:58.582Z,17.03
2019-05-28T14:34:43.818Z,17.26
2019-05-28T14:37:17.672Z,17.30
2019-05-28T14:40:08.610Z,17.32
2019-05-28T14:42:52.858Z,17.46
2019-05-28T14:45:35.909Z,17.53
2019-05-28T14:48:20.381Z,18.47
2019-05-28T14:50:54.246Z,18.99
2019-05-28T14:53:28.205Z,18.31
2019-05-28T14:56:11.017Z,17.69
2019-05-28T14:58:53.772Z,17.00
2019-05-28T15:01:37.268Z,17.03
2019-05-28T15:04:11.618Z,16.75
2019-05-28T15:06:57.313Z,16.67
2019-05-28T15:09:29.993Z,16.61
2019-05-28T15:12:03.852Z,16.62
2019-05-28T15:14:37.904Z,16.74
2019-05-28T15:17:12.418Z,16.89
2019-05-28T15:19:58.434Z,16.80
2019-05-28T15:22:32.796Z,16.88
2019-05-28T15:25:06.960Z,17.13
2019-05-28T15:27:52.236Z,17.29
2019-05-28T15:30:26.276Z,17.50
2019-05-28T15:33:17.932Z,17.34
2019-05-28T15:35:56.127Z,16.90
2019-05-28T15:38:29.187Z,16.58
2019-05-28T15:41:02.580Z,16.57
2019-05-28T15:43:37.110Z,17.05
2019-05-28T15:46:11.302Z,17.50
2019-05-28T15:48:45.315Z,17.92
2019-05-28T15:51:30.580Z,18.05
2019-05-28T15:54:04.460Z,17.75
2019-05-28T15:56:38.562Z,17.80
2019-05-28T16:09:55.985Z,17.29
2019-05-28T16:12:23.993Z,17.49
2019-05-28T16:14:58.293Z,17.64
2019-05-28T16:17:46.019Z,17.45
2019-05-28T16:20:37.100Z,16.99
2019-05-28T16:23:23.531Z,16.81
2019-05-28T16:25:57.558Z,16.49
2019-05-28T16:28:31.580Z,16.49
2019-05-28T16:31:12.574Z,16.27
2019-05-28T16:33:42.396Z,16.51
2019-05-28T16:36:16.484Z,16.92
2019-05-28T16:38:49.827Z,17.01
2019-05-28T16:41:23.336Z,17.01
2019-05-28T16:43:57.038Z,16.80
2019-05-28T16:46:30.920Z,16.62
2019-05-28T16:49:04.239Z,16.30
2019-05-28T16:51:38.172Z,16.48
2019-05-28T16:54:30.820Z,16.49
2019-05-28T16:57:04.355Z,16.35
2019-05-28T16:59:38.569Z,16.00
2019-05-28T17:02:12.838Z,16.61
2019-05-28T17:04:58.368Z,17.02
2019-05-28T17:07:32.304Z,17.02
2019-05-28T17:10:06.766Z,17.03
2019-05-28T17:12:52.141Z,16.96
2019-05-28T17:15:26.150Z,15.98
2019-05-28T17:18:18.255Z,15.90
2019-05-28T17:21:03.551Z,15.38
2019-05-28T17:23:37.736Z,15.42
2019-05-28T17:26:12.131Z,15.51
2019-05-28T17:28:58.164Z,15.75
2019-05-28T17:31:32.686Z,15.66
2019-05-28T17:34:06.882Z,15.87
2019-05-28T17:36:52.361Z,15.97
2019-05-28T17:39:37.771Z,15.55
2019-05-28T17:42:22.634Z,15.28
2019-05-28T17:44:56.220Z,15.16
2019-05-28T17:47:30.417Z,15.14
2019-05-28T17:50:03.938Z,15.17
2019-05-28T17:52:51.571Z,15.36
2019-05-28T17:55:24.495Z,15.50
2019-05-28T17:57:57.723Z,15.75
2019-05-28T18:00:31.830Z,15.54
2019-05-28T18:03:24.484Z,15.53
2019-05-28T18:05:58.780Z,15.08
2019-05-28T18:08:44.364Z,14.91
2019-05-28T18:11:30.186Z,14.58
2019-05-28T18:14:04.161Z,14.25
2019-05-28T18:16:48.938Z,14.02
2019-05-28T18:19:23.361Z,13.62
2019-05-28T18:22:07.870Z,13.52
2019-05-28T18:24:41.560Z,13.39
2019-05-28T18:27:16.255Z,13.33
2019-05-28T18:29:50.403Z,13.20
2019-05-28T18:32:24.592Z,13.05
2019-05-28T18:35:09.164Z,12.94
2019-05-28T18:37:43.691Z,12.88
2019-05-28T18:40:19.442Z,12.78
2019-05-28T18:42:53.568Z,12.78
2019-05-28T18:45:27.938Z,12.73
2019-05-28T18:48:10.857Z,12.80
2019-05-28T18:50:57.200Z,12.76
2019-05-28T18:53:42.742Z,12.70
2019-05-28T18:56:18.237Z,12.60
2019-05-28T18:59:07.303Z,12.54
2019-05-28T19:01:51.491Z,12.49
2019-05-28T19:04:38.052Z,12.50
2019-05-28T19:07:12.681Z,12.40
2019-05-28T19:09:59.740Z,12.40
2019-05-28T19:12:33.725Z,12.28
2019-05-28T19:15:07.638Z,12.20
2019-05-28T19:17:41.233Z,12.16
2019-05-28T19:20:15.013Z,12.06
2019-05-28T19:22:48.824Z,11.98
2019-05-28T19:25:23.524Z,12.02
2019-05-28T19:27:57.785Z,11.99
2019-05-28T19:30:43.275Z,11.94
2019-05-28T19:33:28.722Z,11.88
2019-05-28T19:36:13.710Z,11.86
2019-05-28T19:38:49.353Z,11.76
2019-05-28T19:41:22.860Z,11.71
2019-05-28T19:43:56.563Z,11.69
2019-05-28T19:46:30.618Z,11.64
2019-05-28T19:49:04.524Z,11.60
2019-05-28T19:51:49.853Z,11.63
2019-05-28T19:54:23.574Z,11.63
2019-05-28T19:57:14.724Z,11.63
2019-05-28T20:00:06.271Z,11.63
2019-05-28T20:02:41.110Z,11.50
2019-05-28T20:05:32.375Z,11.54
2019-05-28T20:08:17.712Z,11.47
2019-05-28T20:10:53.027Z,11.30
2019-05-28T20:13:44.710Z,11.35
2019-05-28T20:16:29.527Z,11.29
2019-05-28T20:19:03.339Z,11.22
2019-05-28T20:21:37.390Z,11.19
2019-05-28T20:24:11.152Z,11.15
2019-05-28T20:26:45.640Z,11.09
2019-05-28T20:29:21.655Z,11.03
2019-05-28T20:32:13.914Z,10.99
2019-05-28T20:34:47.890Z,10.86
2019-05-28T20:37:45.016Z,10.81
2019-05-28T20:40:18.839Z,10.65
2019-05-28T20:42:53.230Z,10.65
2019-05-28T20:46:09.003Z,10.67
2019-05-28T20:49:00.657Z,10.68
2019-05-28T20:51:34.718Z,10.65
2019-05-28T20:54:08.282Z,10.61
2019-05-28T20:56:42.480Z,10.55
2019-05-28T20:59:43.973Z,10.63
2019-05-28T21:02:19.249Z,10.49
2019-05-28T21:04:54.472Z,10.47
2019-05-28T21:07:29.137Z,10.46
2019-05-28T21:20:37.986Z,10.37
2019-05-28T21:23:12.206Z,10.30
2019-05-28T21:25:46.003Z,10.26
2019-05-28T21:28:19.953Z,10.17
2019-05-28T21:30:54.665Z,10.11
2019-05-28T21:33:28.797Z,10.04
2019-05-28T21:36:11.593Z,10.05
2019-05-28T21:38:55.265Z,9.99
2019-05-28T21:41:28.825Z,9.90
2019-05-28T21:44:03.089Z,9.92
2019-05-28T21:46:48.561Z,9.92
2019-05-28T21:49:23.787Z,9.77
2019-05-28T21:51:58.872Z,9.75
2019-05-28T21:54:32.808Z,9.75
2019-05-28T21:57:06.073Z,9.72
2019-05-28T21:59:40.341Z,9.73
2019-05-28T22:02:14.107Z,9.59
2019-05-28T22:04:47.854Z,9.61
2019-05-28T22:07:33.260Z,9.69
2019-05-28T22:10:17.044Z,9.64
2019-05-28T22:13:16.681Z,9.59
2019-05-28T22:15:51.114Z,9.55
2019-05-28T22:18:25.219Z,9.48
2019-05-28T22:21:09.748Z,9.55
2019-05-28T22:23:42.673Z,9.41
2019-05-28T22:26:16.091Z,9.38
2019-05-28T22:28:59.389Z,9.45
2019-05-28T22:31:33.320Z,9.35
2019-05-28T22:34:07.466Z,9.32
2019-05-28T22:36:49.557Z,9.35
2019-05-28T22:39:23.787Z,9.21
2019-05-28T22:42:07.915Z,9.21
2019-05-28T22:44:42.236Z,9.05
2019-05-28T22:47:16.229Z,8.99
2019-05-28T22:49:50.025Z,8.97
2019-05-28T22:52:23.652Z,8.96
2019-05-28T22:54:57.808Z,8.92
2019-05-28T22:57:42.798Z,8.91
2019-05-28T23:00:27.490Z,8.94
2019-05-28T23:03:12.631Z,8.84
2019-05-28T23:06:03.882Z,8.74
2019-05-28T23:08:49.507Z,8.74
2019-05-28T23:11:22.911Z,8.68
2019-05-28T23:13:58.368Z,8.64
2019-05-28T23:16:50.025Z,8.59
2019-05-28T23:19:23.756Z,8.59
2019-05-28T23:21:57.538Z,8.54
2019-05-28T23:24:31.598Z,8.56
2019-05-28T23:27:07.646Z,8.51
2019-05-28T23:29:41.871Z,8.45
2019-05-28T23:32:15.334Z,8.39
2019-05-28T23:34:49.740Z,8.32
2019-05-28T23:37:25.412Z,8.23
2019-05-28T23:39:58.971Z,8.10
2019-05-28T23:42:33.095Z,8.06
2019-05-28T23:45:07.817Z,7.99
2019-05-28T23:47:42.120Z,7.89
2019-05-28T23:50:27.514Z,7.85
2019-05-28T23:53:13.729Z,7.78
2019-05-28T23:55:47.950Z,7.73
2019-05-28T23:58:22.486Z,7.68
